createdAt,value
2022-12-05T00:01:41.177Z,89.33
2022-12-05T00:04:44.517Z,90.39
2022-12-05T00:07:48.116Z,90.15
2022-12-05T00:10:50.251Z,89.96
2022-12-05T00:13:54.850Z,90.61
2022-12-05T00:16:57.118Z,90.07
2022-12-05T00:19:59.637Z,89.39
2022-12-05T00:23:02.186Z,90.44
2022-12-05T00:26:04.704Z,89.66
2022-12-05T00:29:06.712Z,89.14
2022-12-05T00:32:08.563Z,89.40
2022-12-05T00:35:10.728Z,89.35
2022-12-05T00:38:12.951Z,89.75
2022-12-05T00:41:21.336Z,89.18
2022-12-05T00:44:23.214Z,90.31
2022-12-05T00:47:24.968Z,90.36
2022-12-05T00:50:27.237Z,89.66
2022-12-05T00:53:29.268Z,89.60
2022-12-05T00:56:31.848Z,90.42
2022-12-05T00:59:33.837Z,89.87
2022-12-05T01:02:35.624Z,89.89
2022-12-05T01:05:37.691Z,89.25
2022-12-05T01:08:40.344Z,89.58
2022-12-05T01:11:42.751Z,89.17
2022-12-05T01:14:44.607Z,88.51
2022-12-05T01:17:46.510Z,87.89
2022-12-05T01:20:49.297Z,88.25
2022-12-05T01:23:51.389Z,88.31
2022-12-05T01:26:53.358Z,88.17
2022-12-05T01:29:56.161Z,88.07
2022-12-05T01:32:59.374Z,87.71
2022-12-05T01:36:02.510Z,88.23
2022-12-05T01:39:04.250Z,88.26
2022-12-05T01:42:06.117Z,88.79
2022-12-05T01:45:15.820Z,88.31
2022-12-05T01:48:24.267Z,87.95
2022-12-05T01:51:26.134Z,87.78
2022-12-05T01:54:28.369Z,87.98
2022-12-05T01:57:30.911Z,87.92
2022-12-05T02:00:36.296Z,87.81
2022-12-05T02:03:38.669Z,87.34
2022-12-05T02:06:40.692Z,86.95
2022-12-05T02:09:42.654Z,87.47
2022-12-05T02:12:45.473Z,87.44
2022-12-05T02:16:03.501Z,87.87
2022-12-05T02:19:30.278Z,87.28
2022-12-05T02:22:54.365Z,87.83
2022-12-05T02:26:15.031Z,87.67
2022-12-05T02:29:54.661Z,87.34
2022-12-05T02:33:17.357Z,87.00
2022-12-05T02:36:32.575Z,86.81
2022-12-05T02:39:57.704Z,87.01
2022-12-05T02:43:03.775Z,87.44
2022-12-05T02:46:12.168Z,86.94
2022-12-05T02:49:18.008Z,87.44
2022-12-05T02:52:21.603Z,87.83
2022-12-05T02:55:24.430Z,87.79
2022-12-05T02:58:32.493Z,88.48
2022-12-05T03:01:34.367Z,87.83
2022-12-05T03:04:36.485Z,89.00
2022-12-05T03:07:39.108Z,88.82
2022-12-05T03:10:42.137Z,88.82
2022-12-05T03:13:56.645Z,88.60
2022-12-05T03:17:01.642Z,87.98
2022-12-05T03:20:16.267Z,88.92
2022-12-05T03:23:22.456Z,88.67
2022-12-05T03:26:42.902Z,88.27
2022-12-05T03:29:56.392Z,88.16
2022-12-05T03:33:32.166Z,88.19
2022-12-05T03:36:39.716Z,87.79
2022-12-05T03:39:45.099Z,87.33
2022-12-05T03:42:55.888Z,87.33
2022-12-05T03:46:05.975Z,87.58
2022-12-05T03:49:11.474Z,86.85
2022-12-05T03:52:18.144Z,87.42
2022-12-05T03:55:20.344Z,87.23
2022-12-05T03:58:51.664Z,87.59
2022-12-05T04:01:56.137Z,86.98
2022-12-05T04:05:13.516Z,87.57
2022-12-05T04:08:39.220Z,87.26
2022-12-05T04:11:44.281Z,87.28
2022-12-05T04:14:50.294Z,87.59
2022-12-05T04:17:57.556Z,87.12
2022-12-05T04:21:19.081Z,87.50
2022-12-05T04:24:57.168Z,87.20
2022-12-05T04:28:10.971Z,87.66
2022-12-05T04:31:23.496Z,87.48
2022-12-05T04:34:28.720Z,87.94
2022-12-05T04:37:32.339Z,87.58
2022-12-05T04:40:39.305Z,87.96
2022-12-05T04:43:44.131Z,87.45
2022-12-05T04:46:46.954Z,87.53
2022-12-05T04:49:53.513Z,87.58
2022-12-05T04:52:56.801Z,87.31
2022-12-05T04:56:00.515Z,87.40
2022-12-05T04:59:03.078Z,87.43
2022-12-05T05:02:08.640Z,87.20
2022-12-05T05:05:14.077Z,86.73
2022-12-05T05:08:19.398Z,87.23
2022-12-05T05:11:26.030Z,87.82
2022-12-05T05:14:28.504Z,87.49
2022-12-05T05:17:30.698Z,87.90
2022-12-05T05:20:32.551Z,87.95
2022-12-05T05:23:34.478Z,87.27
2022-12-05T05:26:39.104Z,87.56
2022-12-05T05:29:41.149Z,87.16
2022-12-05T05:32:43.450Z,87.31
2022-12-05T05:35:45.410Z,87.33
2022-12-05T05:38:49.665Z,87.50
2022-12-05T05:41:51.421Z,87.86
2022-12-05T05:44:53.776Z,87.79
2022-12-05T05:47:55.700Z,87.64
2022-12-05T05:51:02.114Z,88.21
2022-12-05T05:54:04.194Z,88.31
2022-12-05T05:57:06.169Z,88.27
2022-12-05T06:00:09.073Z,87.88
2022-12-05T06:03:11.105Z,88.31
2022-12-05T06:06:15.003Z,88.03
2022-12-05T06:09:16.793Z,88.38
2022-12-05T06:12:19.225Z,88.08
2022-12-05T06:15:21.097Z,87.63
2022-12-05T06:18:23.135Z,87.50
2022-12-05T06:21:26.303Z,87.30
2022-12-05T06:24:28.125Z,87.37
2022-12-05T06:27:31.589Z,87.09
2022-12-05T06:30:33.414Z,87.49
2022-12-05T06:33:35.332Z,87.48
2022-12-05T06:36:37.666Z,87.72
2022-12-05T06:39:39.879Z,86.72
2022-12-05T06:42:41.880Z,86.78
2022-12-05T06:45:43.847Z,86.95
2022-12-05T06:48:46.007Z,86.76
2022-12-05T06:51:48.142Z,87.67
2022-12-05T06:54:50.179Z,86.72
2022-12-05T06:57:52.176Z,87.51
2022-12-05T07:01:13.204Z,86.82
2022-12-05T07:04:21.030Z,86.21
2022-12-05T07:07:23.478Z,87.07
2022-12-05T07:10:25.317Z,87.08
2022-12-05T07:13:27.548Z,86.76
2022-12-05T07:16:29.640Z,86.36
2022-12-05T07:19:32.207Z,86.69
2022-12-05T07:22:37.115Z,86.80
2022-12-05T07:25:40.527Z,86.46
2022-12-05T07:28:42.654Z,86.63
2022-12-05T07:31:44.900Z,86.29
2022-12-05T07:34:52.145Z,86.52
2022-12-05T07:37:57.868Z,86.30
2022-12-05T07:41:00.043Z,86.25
2022-12-05T07:44:02.446Z,86.34
2022-12-05T07:47:04.594Z,85.95
2022-12-05T07:50:07.037Z,85.84
2022-12-05T07:53:09.540Z,85.86
2022-12-05T07:56:19.470Z,85.87
2022-12-05T07:59:21.328Z,85.78
2022-12-05T08:02:23.280Z,86.44
2022-12-05T08:05:26.273Z,85.94
2022-12-05T08:08:28.004Z,86.17
2022-12-05T08:11:34.731Z,86.34
2022-12-05T08:14:36.710Z,86.44
2022-12-05T08:17:39.102Z,86.87
2022-12-05T08:20:41.189Z,86.79
2022-12-05T08:23:43.615Z,86.58
2022-12-05T08:26:45.979Z,86.80
2022-12-05T08:29:47.960Z,86.20
2022-12-05T08:32:49.999Z,86.94
2022-12-05T08:35:52.044Z,86.43
2022-12-05T08:39:02.953Z,86.20
2022-12-05T08:42:05.004Z,86.42
2022-12-05T08:45:07.746Z,86.11
2022-12-05T08:48:09.763Z,86.21
2022-12-05T08:51:13.205Z,85.16
2022-12-05T08:54:15.461Z,85.83
2022-12-05T08:57:17.274Z,86.12
2022-12-05T09:00:20.024Z,86.17
2022-12-05T09:03:22.034Z,86.93
2022-12-05T09:06:25.482Z,86.35
2022-12-05T09:09:27.774Z,86.23
2022-12-05T09:12:29.558Z,86.21
2022-12-05T09:15:31.811Z,86.78
2022-12-05T09:18:34.278Z,86.66
2022-12-05T09:21:36.338Z,86.75
2022-12-05T09:24:38.807Z,86.46
2022-12-05T09:27:40.762Z,87.00
2022-12-05T09:30:44.169Z,86.00
2022-12-05T09:33:47.346Z,86.01
2022-12-05T09:37:05.452Z,85.82
2022-12-05T09:40:17.718Z,85.54
2022-12-05T09:43:32.498Z,85.19
2022-12-05T09:46:55.365Z,85.49
2022-12-05T09:50:23.990Z,85.18
2022-12-05T09:53:30.926Z,85.46
2022-12-05T09:56:33.133Z,84.75
2022-12-05T09:59:35.409Z,85.38
2022-12-05T10:02:44.276Z,84.22
2022-12-05T10:06:20.945Z,85.50
2022-12-05T10:09:44.471Z,85.02
2022-12-05T10:13:01.961Z,84.51
2022-12-05T10:16:10.626Z,85.38
2022-12-05T10:19:24.600Z,85.16
2022-12-05T10:22:43.270Z,84.36
2022-12-05T10:25:45.592Z,85.00
2022-12-05T10:29:13.353Z,85.08
2022-12-05T10:33:05.008Z,85.12
2022-12-05T10:36:13.311Z,85.30
2022-12-05T10:39:15.530Z,85.16
2022-12-05T10:42:27.520Z,85.55
2022-12-05T10:45:29.511Z,85.29
2022-12-05T10:48:38.757Z,85.36
2022-12-05T10:51:40.878Z,85.34
2022-12-05T10:54:49.818Z,85.22
2022-12-05T10:58:02.717Z,85.55
2022-12-05T11:01:09.764Z,85.68
2022-12-05T11:04:31.022Z,85.64
2022-12-05T11:07:45.873Z,85.62
2022-12-05T11:10:47.726Z,85.93
2022-12-05T11:13:59.114Z,86.12
2022-12-05T11:17:02.942Z,85.59
2022-12-05T11:20:25.236Z,86.02
2022-12-05T11:23:30.457Z,86.49
2022-12-05T11:26:37.446Z,85.99
2022-12-05T11:29:40.165Z,86.16
2022-12-05T11:32:42.398Z,86.55
2022-12-05T11:35:45.275Z,86.25
2022-12-05T11:38:47.503Z,86.62
2022-12-05T11:41:52.814Z,86.19
2022-12-05T11:45:13.088Z,86.57
2022-12-05T11:48:37.011Z,86.45
2022-12-05T11:52:13.309Z,86.71
2022-12-05T11:55:19.895Z,87.04
2022-12-05T11:58:31.155Z,86.86
2022-12-05T12:01:54.670Z,86.33
2022-12-05T12:05:11.935Z,86.60
2022-12-05T12:08:27.959Z,87.21
2022-12-05T12:11:47.683Z,87.53
2022-12-05T12:15:09.130Z,87.79
2022-12-05T12:18:29.543Z,87.62
2022-12-05T12:22:05.860Z,87.93
2022-12-05T12:25:27.433Z,87.16
2022-12-05T12:28:46.155Z,86.96
2022-12-05T12:32:02.032Z,86.77
2022-12-05T12:35:16.626Z,86.61
2022-12-05T12:38:22.096Z,86.47
2022-12-05T12:41:50.187Z,86.59
2022-12-05T12:45:04.368Z,87.36
2022-12-05T12:48:34.776Z,87.18
2022-12-05T12:51:49.156Z,86.92
2022-12-05T12:55:30.330Z,86.89
2022-12-05T12:58:35.170Z,86.17
2022-12-05T13:02:10.681Z,87.01
2022-12-05T13:05:24.562Z,86.51
2022-12-05T13:08:50.419Z,86.71
2022-12-05T13:11:53.589Z,87.30
2022-12-05T13:15:00.825Z,87.24
2022-12-05T13:18:05.087Z,86.58
2022-12-05T13:21:09.226Z,86.61
2022-12-05T13:24:12.327Z,86.36
2022-12-05T13:27:18.529Z,87.01
2022-12-05T13:30:20.877Z,87.37
2022-12-05T13:33:26.496Z,86.80
2022-12-05T13:36:47.177Z,86.88
2022-12-05T13:40:13.235Z,88.24
2022-12-05T13:43:18.939Z,87.93
2022-12-05T13:46:26.965Z,87.75
2022-12-05T13:49:43.723Z,87.42
2022-12-05T13:52:49.536Z,87.18
2022-12-05T13:56:00.925Z,88.17
2022-12-05T13:59:03.407Z,87.65
2022-12-05T14:02:47.464Z,87.60
2022-12-05T14:05:51.887Z,88.12
2022-12-05T14:08:54.869Z,88.01
2022-12-05T14:12:15.144Z,87.93
2022-12-05T14:15:29.373Z,88.05
2022-12-05T14:18:47.215Z,88.75
2022-12-05T14:21:49.445Z,88.61
2022-12-05T14:25:00.386Z,88.64
2022-12-05T14:28:02.443Z,89.21
2022-12-05T14:31:26.385Z,88.81
2022-12-05T14:34:30.578Z,88.77
2022-12-05T14:37:36.939Z,89.74
2022-12-05T14:40:44.063Z,88.61
2022-12-05T14:43:52.914Z,88.47
2022-12-05T14:46:55.092Z,88.43
2022-12-05T14:50:35.366Z,88.60
2022-12-05T14:53:42.381Z,88.23
2022-12-05T14:56:46.539Z,87.68
2022-12-05T15:00:10.048Z,87.59
2022-12-05T15:03:22.522Z,87.57
2022-12-05T15:06:28.298Z,87.14
2022-12-05T15:09:38.163Z,87.53
2022-12-05T15:13:11.362Z,87.82
2022-12-05T15:16:16.889Z,88.06
2022-12-05T15:19:33.893Z,88.45
2022-12-05T15:22:37.678Z,88.58
2022-12-05T15:25:39.955Z,88.83
2022-12-05T15:28:42.219Z,88.25
2022-12-05T15:31:48.223Z,88.11
2022-12-05T15:35:05.329Z,88.12
2022-12-05T15:38:31.059Z,87.67
2022-12-05T15:41:33.280Z,87.33
2022-12-05T15:44:38.253Z,86.87
2022-12-05T15:47:46.430Z,86.50
2022-12-05T15:50:51.645Z,86.13
2022-12-05T15:54:01.075Z,86.71
2022-12-05T15:57:08.125Z,86.87
2022-12-05T16:00:19.036Z,86.85
2022-12-05T16:03:28.798Z,86.67
2022-12-05T16:06:41.212Z,86.58
2022-12-05T16:09:45.124Z,86.91
2022-12-05T16:12:48.383Z,86.44
2022-12-05T16:15:53.343Z,86.93
2022-12-05T16:19:00.377Z,86.75
2022-12-05T16:22:14.776Z,86.74
2022-12-05T16:25:22.116Z,86.23
2022-12-05T16:28:24.528Z,85.93
2022-12-05T16:31:27.373Z,86.17
2022-12-05T16:34:33.279Z,86.03
2022-12-05T16:37:35.617Z,86.12
2022-12-05T16:41:00.412Z,86.53
2022-12-05T16:44:10.753Z,86.82
2022-12-05T16:47:26.604Z,86.67
2022-12-05T16:50:35.131Z,87.29
2022-12-05T16:53:40.211Z,87.04
2022-12-05T16:56:43.290Z,86.71
2022-12-05T16:59:49.084Z,86.55
2022-12-05T17:02:55.268Z,86.41
2022-12-05T17:05:58.290Z,85.87
2022-12-05T17:09:00.617Z,86.17
2022-12-05T17:12:07.623Z,86.39
2022-12-05T17:15:19.742Z,86.54
2022-12-05T17:18:26.596Z,86.31
2022-12-05T17:21:33.261Z,86.47
2022-12-05T17:24:36.355Z,86.16
2022-12-05T17:27:38.773Z,85.98
2022-12-05T17:30:41.429Z,86.26
2022-12-05T17:33:47.263Z,86.24
2022-12-05T17:36:49.537Z,86.19
2022-12-05T17:39:51.811Z,86.29
2022-12-05T17:42:54.800Z,85.99
2022-12-05T17:46:00.341Z,85.72
2022-12-05T17:49:02.797Z,85.64
2022-12-05T17:52:22.152Z,85.96
2022-12-05T17:55:28.542Z,86.05
2022-12-05T17:58:30.868Z,86.33
2022-12-05T18:01:33.109Z,86.96
2022-12-05T18:04:35.845Z,87.43
2022-12-05T18:07:39.542Z,87.71
2022-12-05T18:10:43.362Z,89.05
2022-12-05T18:13:45.862Z,89.26
2022-12-05T18:16:48.246Z,88.96
2022-12-05T18:19:50.625Z,89.05
2022-12-05T18:22:52.548Z,88.42
2022-12-05T18:26:01.383Z,88.82
2022-12-05T18:29:03.931Z,88.32
2022-12-05T18:32:07.131Z,90.52
2022-12-05T18:35:13.023Z,89.70
2022-12-05T18:38:16.124Z,90.35
2022-12-05T18:41:18.368Z,91.28
2022-12-05T18:44:21.501Z,91.05
2022-12-05T18:47:25.229Z,91.01
2022-12-05T18:50:30.424Z,91.75
2022-12-05T18:53:32.484Z,92.57
2022-12-05T18:56:36.507Z,92.63
2022-12-05T18:59:38.782Z,93.15
2022-12-05T19:02:40.824Z,92.82
2022-12-05T19:05:44.699Z,92.51
2022-12-05T19:08:49.686Z,92.05
2022-12-05T19:11:57.134Z,92.41
2022-12-05T19:15:02.245Z,92.34
2022-12-05T19:18:04.978Z,91.88
2022-12-05T19:21:08.320Z,92.05
2022-12-05T19:24:13.545Z,91.73
2022-12-05T19:27:16.098Z,91.69
2022-12-05T19:30:18.775Z,92.00
2022-12-05T19:33:21.088Z,93.03
2022-12-05T19:36:32.254Z,92.78
2022-12-05T19:39:37.637Z,94.03
2022-12-05T19:42:40.368Z,93.71
2022-12-05T19:45:42.935Z,93.00
2022-12-05T19:48:45.911Z,93.08
2022-12-05T19:51:49.379Z,94.02
2022-12-05T19:54:51.833Z,95.00
2022-12-05T19:57:54.549Z,93.58
2022-12-05T20:00:57.253Z,93.27
2022-12-05T20:04:02.253Z,93.64
2022-12-05T20:07:04.610Z,93.42
2022-12-05T20:10:07.142Z,93.77
2022-12-05T20:13:38.464Z,93.82
2022-12-05T20:16:33.938Z,93.66
2022-12-05T20:19:36.433Z,93.12
2022-12-05T20:22:38.736Z,93.59
2022-12-05T20:25:41.446Z,94.41
2022-12-05T20:28:45.206Z,93.65
2022-12-05T20:31:52.394Z,93.33
2022-12-05T20:34:54.490Z,94.35
2022-12-05T20:37:57.557Z,94.48
2022-12-05T20:41:01.241Z,95.14
2022-12-05T20:44:06.373Z,95.37
2022-12-05T20:47:08.349Z,96.47
2022-12-05T20:50:11.455Z,96.02
2022-12-05T20:53:13.790Z,96.39
2022-12-05T20:56:17.712Z,96.95
2022-12-05T20:59:19.955Z,97.38
2022-12-05T21:02:22.100Z,97.55
2022-12-05T21:05:24.865Z,97.41
2022-12-05T21:08:27.711Z,97.14
2022-12-05T21:11:31.058Z,96.69
2022-12-05T21:14:34.889Z,96.11
2022-12-05T21:17:37.239Z,96.22
2022-12-05T21:20:42.270Z,97.04
2022-12-05T21:23:46.408Z,96.86
2022-12-05T21:26:50.240Z,95.98
2022-12-05T21:29:52.671Z,95.52
2022-12-05T21:32:55.736Z,96.46
2022-12-05T21:35:58.062Z,95.29
2022-12-05T21:39:01.032Z,95.72
2022-12-05T21:42:03.243Z,95.29
2022-12-05T21:45:05.420Z,95.07
2022-12-05T21:48:07.695Z,95.83
2022-12-05T21:51:10.425Z,95.06
2022-12-05T21:54:12.729Z,95.09
2022-12-05T21:57:14.866Z,96.24
2022-12-05T22:00:17.376Z,95.33
2022-12-05T22:03:19.432Z,95.23
2022-12-05T22:06:21.497Z,97.43
2022-12-05T22:09:23.526Z,97.94
2022-12-05T22:12:25.861Z,97.89
2022-12-05T22:15:27.979Z,97.40
2022-12-05T22:18:30.623Z,96.08
2022-12-05T22:21:35.215Z,95.49
2022-12-05T22:24:37.952Z,97.38
2022-12-05T22:27:39.820Z,96.83
2022-12-05T22:30:41.922Z,97.61
2022-12-05T22:33:45.182Z,98.32
2022-12-05T22:36:49.154Z,98.10
2022-12-05T22:39:51.438Z,97.82
2022-12-05T22:42:53.282Z,97.40
2022-12-05T22:45:55.881Z,96.83
2022-12-05T22:48:58.492Z,96.38
2022-12-05T22:52:00.383Z,95.79
2022-12-05T22:55:02.701Z,95.59
2022-12-05T22:58:04.815Z,96.72
2022-12-05T23:01:11.791Z,97.46
2022-12-05T23:04:13.680Z,97.56
2022-12-05T23:07:15.865Z,97.63
2022-12-05T23:10:17.902Z,96.56
2022-12-05T23:13:19.762Z,96.08
2022-12-05T23:16:26.464Z,95.79
2022-12-05T23:19:28.367Z,95.81
2022-12-05T23:22:30.566Z,95.45
2022-12-05T23:25:32.546Z,95.66
2022-12-05T23:28:35.647Z,95.86
2022-12-05T23:31:37.723Z,95.39
2022-12-05T23:34:40.384Z,94.56
2022-12-05T23:37:42.662Z,94.58
2022-12-05T23:40:44.441Z,94.50
2022-12-05T23:43:47.528Z,94.43
2022-12-05T23:46:49.531Z,94.96
2022-12-05T23:49:51.430Z,95.86
2022-12-05T23:52:53.656Z,96.68
2022-12-05T23:55:55.948Z,96.28
2022-12-05T23:58:58.028Z,95.58
